createdAt,value
2019-02-18T00:04:17.477Z,4.30
2019-02-18T00:09:19.049Z,4.33
2019-02-18T00:14:20.617Z,4.33
2019-02-18T00:19:22.269Z,4.32
2019-02-18T00:24:23.873Z,4.38
2019-02-18T00:29:25.457Z,4.37
2019-02-18T00:34:27.151Z,4.32
2019-02-18T00:39:28.869Z,4.23
2019-02-18T00:44:30.434Z,4.11
2019-02-18T00:49:31.997Z,4.08
2019-02-18T00:54:33.543Z,4.21
2019-02-18T00:59:35.214Z,4.35
2019-02-18T01:04:36.972Z,4.42
2019-02-18T01:09:39.800Z,4.37
2019-02-18T01:14:41.363Z,4.26
2019-02-18T01:19:42.921Z,4.10
2019-02-18T01:24:46.626Z,3.99
2019-02-18T01:29:50.081Z,3.93
2019-02-18T01:34:54.637Z,3.75
2019-02-18T01:39:58.183Z,3.64
2019-02-18T01:45:00.346Z,3.51
2019-02-18T01:50:03.506Z,3.41
2019-02-18T01:55:07.169Z,3.39
2019-02-18T02:00:14.907Z,3.38
2019-02-18T02:05:17.088Z,3.35
2019-02-18T02:10:18.647Z,3.42
2019-02-18T02:15:26.305Z,3.42
2019-02-18T02:20:28.059Z,3.43
2019-02-18T02:25:29.626Z,3.34
2019-02-18T02:30:31.321Z,3.16
2019-02-18T02:35:32.943Z,3.11
2019-02-18T02:40:34.499Z,3.11
2019-02-18T02:45:36.061Z,3.06
2019-02-18T02:50:37.845Z,3.03
2019-02-18T02:55:40.508Z,2.93
2019-02-18T03:00:42.077Z,2.88
2019-02-18T03:05:43.767Z,2.88
2019-02-18T03:10:45.341Z,2.74
2019-02-18T03:15:46.909Z,2.69
2019-02-18T03:20:48.660Z,2.60
2019-02-18T03:25:50.221Z,2.55
2019-02-18T03:31:00.134Z,2.49
2019-02-18T03:36:01.736Z,2.49
2019-02-18T03:41:03.802Z,2.50
2019-02-18T03:46:06.454Z,2.53
2019-02-18T03:51:08.212Z,2.60
2019-02-18T03:56:09.779Z,2.63
2019-02-18T04:01:11.619Z,2.65
2019-02-18T04:06:13.237Z,2.73
2019-02-18T04:11:14.809Z,2.85
2019-02-18T04:16:16.469Z,2.99
2019-02-18T04:21:18.036Z,2.99
2019-02-18T04:26:19.615Z,3.03
2019-02-18T04:31:21.255Z,3.05
2019-02-18T04:36:22.849Z,2.81
2019-02-18T04:41:24.653Z,2.64
2019-02-18T04:46:26.212Z,2.56
2019-02-18T04:51:27.771Z,2.60
2019-02-18T04:56:29.345Z,2.63
2019-02-18T05:01:30.920Z,2.64
2019-02-18T05:06:32.542Z,2.64
2019-02-18T05:11:34.238Z,2.56
2019-02-18T05:16:35.796Z,2.58
2019-02-18T05:21:37.437Z,2.62
2019-02-18T05:26:39.022Z,2.59
2019-02-18T05:31:40.617Z,2.59
2019-02-18T05:36:42.326Z,2.63
2019-02-18T05:41:44.047Z,2.64
2019-02-18T05:46:45.602Z,2.67
2019-02-18T05:51:47.492Z,2.67
2019-02-18T05:56:49.271Z,2.64
2019-02-18T06:01:50.867Z,2.62
2019-02-18T06:06:52.548Z,2.63
2019-02-18T06:11:54.134Z,2.75
2019-02-18T06:16:55.700Z,2.88
2019-02-18T06:21:57.263Z,3.15
2019-02-18T06:26:58.925Z,3.54
2019-02-18T06:32:00.540Z,4.18
2019-02-18T06:37:02.146Z,4.68
2019-02-18T06:42:03.718Z,4.94
2019-02-18T06:47:06.390Z,5.30
2019-02-18T06:52:07.955Z,5.67
2019-02-18T06:57:14.104Z,6.09
2019-02-18T07:02:17.560Z,6.58
2019-02-18T07:07:21.128Z,6.95
2019-02-18T07:12:24.632Z,7.22
2019-02-18T07:17:26.184Z,7.24
2019-02-18T07:22:27.758Z,7.29
2019-02-18T07:27:29.357Z,7.18
2019-02-18T07:32:31.038Z,7.83
2019-02-18T07:37:32.606Z,8.50
2019-02-18T07:42:34.207Z,9.02
2019-02-18T07:47:35.865Z,9.47
2019-02-18T07:52:37.530Z,9.88
2019-02-18T07:57:39.084Z,10.38
2019-02-18T08:02:40.807Z,10.56
2019-02-18T08:07:42.479Z,10.93
2019-02-18T08:12:44.451Z,11.28
2019-02-18T08:17:46.012Z,11.71
2019-02-18T08:22:47.600Z,11.89
2019-02-18T08:27:49.172Z,12.07
2019-02-18T08:32:50.772Z,12.17
2019-02-18T08:37:52.349Z,12.46
2019-02-18T08:42:53.920Z,12.84
2019-02-18T08:47:55.511Z,13.38
2019-02-18T08:52:57.076Z,13.76
2019-02-18T08:57:58.637Z,14.31
2019-02-18T09:03:00.283Z,14.79
2019-02-18T09:08:02.007Z,15.21
2019-02-18T09:13:03.578Z,15.24
2019-02-18T09:18:05.246Z,15.06
2019-02-18T09:23:08.739Z,15.25
2019-02-18T09:28:10.414Z,15.88
2019-02-18T09:33:11.998Z,16.21
2019-02-18T09:38:23.756Z,16.57
2019-02-18T09:43:17.686Z,16.64
2019-02-18T09:48:19.549Z,17.13
2019-02-18T09:53:21.118Z,17.54
2019-02-18T09:58:23.792Z,17.62
2019-02-18T10:03:32.030Z,17.69
2019-02-18T10:08:29.070Z,17.45
2019-02-18T10:13:30.790Z,17.36
2019-02-18T10:18:32.356Z,17.33
2019-02-18T10:23:33.919Z,17.37
2019-02-18T10:28:35.486Z,17.47
2019-02-18T10:33:37.064Z,17.62
2019-02-18T10:38:40.211Z,17.46
2019-02-18T10:49:19.389Z,17.85
2019-02-18T10:54:12.502Z,18.16
2019-02-18T10:59:14.081Z,17.97
2019-02-18T11:04:15.800Z,18.13
2019-02-18T11:09:17.493Z,18.68
2019-02-18T11:14:19.113Z,19.39
2019-02-18T11:19:20.678Z,19.48
2019-02-18T11:24:23.350Z,19.63
2019-02-18T11:29:25.342Z,19.55
2019-02-18T11:34:26.909Z,19.82
2019-02-18T11:39:28.476Z,20.05
2019-02-18T11:44:30.098Z,20.25
2019-02-18T11:49:31.665Z,20.49
2019-02-18T11:54:33.529Z,20.51
2019-02-18T11:59:35.122Z,20.53
2019-02-18T12:04:36.723Z,20.71
2019-02-18T12:09:38.416Z,21.26
2019-02-18T12:14:40.805Z,21.37
2019-02-18T12:19:42.409Z,21.51
2019-02-18T12:24:44.094Z,21.85
2019-02-18T12:29:45.700Z,21.76
2019-02-18T12:34:47.560Z,21.98
2019-02-18T12:39:49.151Z,22.20
2019-02-18T12:44:50.900Z,22.29
2019-02-18T12:49:52.493Z,22.36
2019-02-18T12:54:54.101Z,22.39
2019-02-18T12:59:56.201Z,22.89
2019-02-18T13:04:57.976Z,22.91
2019-02-18T13:09:59.838Z,23.00
2019-02-18T13:15:01.450Z,22.99
2019-02-18T13:20:06.634Z,23.06
2019-02-18T13:25:09.506Z,22.90
2019-02-18T13:30:15.075Z,23.35
2019-02-18T13:35:16.803Z,22.90
2019-02-18T13:40:18.475Z,22.67
2019-02-18T13:45:20.656Z,22.22
2019-02-18T13:50:22.526Z,22.06
2019-02-18T13:55:24.571Z,22.14
2019-02-18T14:00:26.598Z,22.41
2019-02-18T14:05:28.304Z,22.43
2019-02-18T14:10:30.142Z,22.49
2019-02-18T14:15:32.003Z,22.14
2019-02-18T14:20:33.654Z,21.91
2019-02-18T14:25:35.216Z,21.47
2019-02-18T14:30:37.039Z,21.23
2019-02-18T14:35:38.690Z,20.94
2019-02-18T14:40:40.572Z,20.27
2019-02-18T14:45:42.345Z,20.02
2019-02-18T14:50:44.424Z,19.63
2019-02-18T14:55:46.196Z,19.33
2019-02-18T15:00:47.944Z,19.20
2019-02-18T15:05:49.762Z,19.13
2019-02-18T15:10:51.513Z,18.78
2019-02-18T15:15:53.081Z,18.54
2019-02-18T15:20:54.749Z,18.26
2019-02-18T15:25:56.513Z,17.78
2019-02-18T15:30:58.541Z,17.32
2019-02-18T15:36:00.415Z,16.95
2019-02-18T15:41:02.127Z,16.48
2019-02-18T15:46:04.084Z,16.09
2019-02-18T15:51:05.968Z,15.76
2019-02-18T15:56:08.157Z,15.30
2019-02-18T16:01:09.847Z,14.97
2019-02-18T16:06:12.781Z,14.76
2019-02-18T16:11:14.570Z,14.58
2019-02-18T16:16:16.220Z,14.44
2019-02-18T16:21:17.782Z,14.26
2019-02-18T16:26:19.356Z,14.04
2019-02-18T16:31:21.127Z,13.87
2019-02-18T16:36:22.807Z,13.64
2019-02-18T16:41:24.787Z,13.48
2019-02-18T16:46:26.850Z,13.27
2019-02-18T16:51:29.221Z,13.16
2019-02-18T16:56:30.786Z,13.00
2019-02-18T17:01:32.752Z,12.87
2019-02-18T17:06:34.318Z,12.78
2019-02-18T17:11:35.955Z,12.67
2019-02-18T17:16:37.609Z,12.55
2019-02-18T17:21:39.278Z,12.36
2019-02-18T17:26:40.969Z,12.27
2019-02-18T17:31:42.675Z,12.17
2019-02-18T17:36:44.352Z,12.03
2019-02-18T17:41:46.478Z,11.89
2019-02-18T17:46:48.164Z,11.77
2019-02-18T17:51:50.683Z,11.56
2019-02-18T17:56:52.265Z,11.42
2019-02-18T18:01:53.877Z,11.39
2019-02-18T18:06:55.556Z,11.30
2019-02-18T18:11:57.231Z,11.24
2019-02-18T18:16:58.790Z,11.23
2019-02-18T18:22:00.957Z,11.15
2019-02-18T18:27:02.665Z,10.99
2019-02-18T18:32:04.370Z,10.89
2019-02-18T18:37:06.009Z,10.73
2019-02-18T18:42:07.693Z,10.25
2019-02-18T18:47:09.257Z,9.70
2019-02-18T18:52:10.823Z,9.47
2019-02-18T18:57:12.390Z,9.38
2019-02-18T19:02:13.986Z,9.32
2019-02-18T19:07:15.729Z,9.30
2019-02-18T19:12:17.694Z,9.17
2019-02-18T19:17:19.256Z,9.01
2019-02-18T19:22:20.936Z,8.84
2019-02-18T19:27:22.949Z,8.62
2019-02-18T19:32:24.573Z,8.46
2019-02-18T19:37:26.154Z,8.36
2019-02-18T19:42:27.746Z,8.22
2019-02-18T19:47:29.311Z,8.06
2019-02-18T19:52:31.378Z,7.85
2019-02-18T19:57:33.048Z,7.77
2019-02-18T20:02:34.645Z,7.68
2019-02-18T20:07:36.328Z,7.64
2019-02-18T20:12:38.185Z,7.60
2019-02-18T20:17:39.867Z,7.54
2019-02-18T20:22:41.632Z,7.44
2019-02-18T20:27:43.222Z,7.33
2019-02-18T20:32:44.771Z,7.19
2019-02-18T20:37:47.444Z,7.07
2019-02-18T20:42:49.041Z,7.00
2019-02-18T20:47:51.955Z,6.89
2019-02-18T20:52:54.887Z,6.82
2019-02-18T20:57:56.558Z,6.81
2019-02-18T21:02:58.690Z,6.69
2019-02-18T21:08:02.885Z,6.63
2019-02-18T21:13:06.734Z,6.60
2019-02-18T21:18:08.291Z,6.51
2019-02-18T21:23:11.085Z,6.52
2019-02-18T21:28:14.585Z,6.45
2019-02-18T21:33:16.159Z,6.40
2019-02-18T21:38:19.669Z,6.42
2019-02-18T21:43:21.234Z,6.32
2019-02-18T21:48:24.257Z,6.20
2019-02-18T21:53:25.833Z,6.09
2019-02-18T21:58:28.564Z,5.97
2019-02-18T22:03:33.321Z,5.87
2019-02-18T22:08:34.917Z,5.73
2019-02-18T22:13:36.896Z,5.74
2019-02-18T22:18:38.457Z,5.67
2019-02-18T22:23:40.087Z,5.68
2019-02-18T22:28:42.780Z,5.67
2019-02-18T22:33:44.598Z,5.68
2019-02-18T22:38:46.414Z,5.63
2019-02-18T22:43:48.621Z,5.59
2019-02-18T22:48:50.690Z,5.61
2019-02-18T22:53:52.669Z,5.55
2019-02-18T22:58:54.313Z,5.53
2019-02-18T23:03:56.510Z,5.53
2019-02-18T23:08:58.508Z,5.49
2019-02-18T23:14:00.385Z,5.52
2019-02-18T23:19:02.367Z,5.36
2019-02-18T23:24:03.931Z,5.32
2019-02-18T23:29:05.605Z,5.26
2019-02-18T23:34:07.211Z,5.13
2019-02-18T23:39:09.183Z,5.13
2019-02-18T23:44:10.952Z,5.19
2019-02-18T23:49:12.504Z,5.19
2019-02-18T23:54:14.068Z,5.17
2019-02-18T23:59:15.637Z,5.22
